Comodoro Py, Argentina
Current Conditions -  °F | °C
As of 3:00 PM on Tuesday 27 Jan 2015 (Local Time) from SAEZ Reporting Station
Broken Clouds Broken Clouds  
Wind Chill: 91°   Ceiling: 10000
Heat Index: 95°   Visibility: 6mi
Dew Point: 68°   Wind: 5mph
Humidity: 46%   Direction: 230°SW
Pressure: 29.71"   Gusts: NA
Location:  35.32°S, 60.52°W
Report Text: SAEZ 271800Z 23004KT 200V270 9999 FEW045TCU BKN100 33/20 Q1006
Loading
Personal Weather Stations






























Interactive Weather Map New forecast layout! Learn more

10-Day Weather Forecast

Advertisements
Track Severe Weather on mobile